Time;durP1;ratioP1;P1;durP2;ratioP2;P2;SDS_P1;SDS_P2;PMS_P1;PMS_P2;Temp;Humidity;BMP_temperature;BMP_pressure;BME280_temperature;BME280_humidity;BME280_pressure;Samples;Min_cycle;Max_cycle;Signal;HPM_P1;HPM_P2
2023/02/04 00:02:25;;;;;;;1999.90;999.90;;;8.10;99.90;;;;;;5110389;28;20453;-70
2023/02/04 00:04:53;;;;;;;1999.90;999.90;;;8.10;99.90;;;;;;5108872;28;20898;-67
2023/02/04 00:07:20;;;;;;;1999.90;999.90;;;8.00;99.90;;;;;;5103497;28;20465;-70
2023/02/04 00:09:48;;;;;;;1999.90;999.90;;;8.00;99.90;;;;;;5110668;28;20453;-69
2023/02/04 00:12:15;;;;;;;1999.90;999.90;;;8.00;99.90;;;;;;5103207;27;20479;-69
2023/02/04 00:14:42;;;;;;;1999.90;999.90;;;8.00;99.90;;;;;;5110919;28;20528;-70
2023/02/04 00:17:11;;;;;;;1999.90;999.90;;;8.00;99.90;;;;;;5116779;27;20471;-70
2023/02/04 00:19:38;;;;;;;1999.90;999.90;;;8.00;99.90;;;;;;5117116;28;20495;-72
2023/02/04 00:22:07;;;;;;;1999.90;999.90;;;8.00;99.90;;;;;;5113941;28;20492;-70
2023/02/04 00:24:34;;;;;;;1999.90;999.90;;;8.00;99.90;;;;;;5107868;28;20526;-70
2023/02/04 00:27:01;;;;;;;1999.90;999.90;;;8.00;99.90;;;;;;5113158;28;20461;-70
2023/02/04 00:29:28;;;;;;;1999.90;999.90;;;8.00;99.90;;;;;;5116892;28;20446;-71
2023/02/04 00:31:55;;;;;;;1999.90;999.90;;;8.00;99.90;;;;;;5113328;28;20472;-71
2023/02/04 00:34:21;;;;;;;1999.90;999.90;;;8.00;99.90;;;;;;5110710;28;20487;-70
2023/02/04 00:36:48;;;;;;;1999.90;999.90;;;8.10;99.90;;;;;;5108388;27;20457;-70
2023/02/04 00:39:16;;;;;;;1999.90;999.90;;;8.10;99.90;;;;;;5107204;28;20456;-71
2023/02/04 00:41:43;;;;;;;1999.90;999.90;;;8.00;99.90;;;;;;5103834;28;20477;-70
2023/02/04 00:44:12;;;;;;;1999.90;999.90;;;8.00;99.90;;;;;;5107063;28;20631;-70
2023/02/04 00:46:39;;;;;;;1999.90;999.90;;;8.00;99.90;;;;;;5108787;28;20473;-69
2023/02/04 00:49:09;;;;;;;1999.90;999.90;;;8.00;99.90;;;;;;5106107;28;20448;-69
2023/02/04 00:51:36;;;;;;;1999.90;999.90;;;8.10;99.90;;;;;;5106029;28;20781;-69
2023/02/04 00:54:03;;;;;;;1999.90;999.90;;;8.10;99.90;;;;;;5108464;28;20448;-70
2023/02/04 00:56:31;;;;;;;1999.90;999.90;;;8.10;99.90;;;;;;5107910;28;20473;-70
2023/02/04 00:58:58;;;;;;;1999.90;999.90;;;8.10;99.90;;;;;;5108276;28;20452;-69
2023/02/04 01:01:25;;;;;;;1999.90;999.90;;;8.20;99.90;;;;;;5103876;28;20485;-70
2023/02/04 01:03:52;;;;;;;1999.90;999.90;;;8.20;99.90;;;;;;5108511;28;20467;-70
2023/02/04 01:06:19;;;;;;;1999.90;999.90;;;8.10;99.90;;;;;;5108577;28;20472;-71
2023/02/04 01:08:45;;;;;;;1999.90;999.90;;;8.10;99.90;;;;;;5109078;28;20444;-69
2023/02/04 01:11:12;;;;;;;1999.90;999.90;;;8.10;99.90;;;;;;5105140;28;20445;-71
2023/02/04 01:13:40;;;;;;;1999.90;999.90;;;8.10;99.90;;;;;;5109641;28;20442;-70
2023/02/04 01:16:07;;;;;;;1999.90;999.90;;;8.10;99.90;;;;;;5105146;28;21127;-70
2023/02/04 01:18:34;;;;;;;1999.90;999.90;;;8.10;99.90;;;;;;5109418;28;20445;-70
2023/02/04 01:21:01;;;;;;;1999.90;999.90;;;8.10;99.90;;;;;;5108605;28;20503;-70
2023/02/04 01:23:27;;;;;;;1999.90;999.90;;;8.00;99.90;;;;;;5109315;28;20449;-70
2023/02/04 01:25:54;;;;;;;1999.90;999.90;;;8.00;99.90;;;;;;5106401;28;20480;-70
2023/02/04 01:28:21;;;;;;;1999.90;999.90;;;8.00;99.90;;;;;;5109472;28;20452;-71
2023/02/04 01:30:49;;;;;;;1999.90;999.90;;;7.90;99.90;;;;;;5107624;28;20443;-70
2023/02/04 01:33:16;;;;;;;1999.90;999.90;;;7.90;99.90;;;;;;5105622;28;20441;-70
2023/02/04 01:35:43;;;;;;;1999.90;999.90;;;7.80;99.90;;;;;;5111425;28;20534;-70
2023/02/04 01:38:10;;;;;;;1999.90;999.90;;;7.80;99.90;;;;;;5110159;28;20449;-70
2023/02/04 01:40:36;;;;;;;1999.90;999.90;;;7.80;99.90;;;;;;5102900;28;20503;-70
2023/02/04 01:43:04;;;;;;;1999.90;999.90;;;7.70;99.90;;;;;;5104440;28;20449;-70
2023/02/04 01:45:33;;;;;;;1999.90;999.90;;;7.80;99.90;;;;;;5106670;28;20471;-70
2023/02/04 01:48:02;;;;;;;1999.90;999.90;;;7.70;99.90;;;;;;5106429;28;20457;-71
2023/02/04 01:50:29;;;;;;;1999.90;999.90;;;7.70;99.90;;;;;;5106422;28;20442;-70
2023/02/04 01:52:56;;;;;;;1999.90;999.90;;;7.80;99.90;;;;;;5104650;28;20495;-72
2023/02/04 01:55:27;;;;;;;1999.90;999.90;;;7.80;99.90;;;;;;5108915;28;20889;-70
2023/02/04 01:57:57;;;;;;;1999.90;999.90;;;7.80;99.90;;;;;;5107551;28;20472;-70
2023/02/04 02:00:28;;;;;;;1999.90;999.90;;;7.80;99.90;;;;;;5105016;28;20453;-70
2023/02/04 02:02:55;;;;;;;1999.90;999.90;;;7.80;99.90;;;;;;5107802;28;20479;-69
2023/02/04 02:05:26;;;;;;;1999.90;999.90;;;7.80;99.90;;;;;;5102249;28;20469;-68
2023/02/04 02:07:56;;;;;;;1999.90;999.90;;;7.80;99.90;;;;;;5109447;28;20454;-70
2023/02/04 02:10:23;;;;;;;1999.90;999.90;;;7.80;99.90;;;;;;5108326;28;20455;-70
2023/02/04 02:12:51;;;;;;;1999.90;999.90;;;7.80;99.90;;;;;;5106957;28;20947;-68
2023/02/04 02:15:18;;;;;;;1999.90;999.90;;;7.80;99.90;;;;;;5107436;28;20472;-70
2023/02/04 02:17:45;;;;;;;1999.90;999.90;;;7.80;99.90;;;;;;5108957;28;20453;-71
2023/02/04 02:20:15;;;;;;;1999.90;999.90;;;7.80;99.90;;;;;;5107816;28;20449;-70
2023/02/04 02:22:55;;;;;;;1999.90;999.90;;;7.90;99.90;;;;;;5108053;28;20568;-71
2023/02/04 02:25:23;;;;;;;1999.90;999.90;;;7.90;99.90;;;;;;5107820;28;20556;-70
2023/02/04 02:27:50;;;;;;;1999.90;999.90;;;7.90;99.90;;;;;;5109282;28;20442;-70
2023/02/04 02:30:18;;;;;;;1999.90;999.90;;;7.90;99.90;;;;;;5101928;28;20453;-71
2023/02/04 02:32:47;;;;;;;1999.90;999.90;;;7.90;99.90;;;;;;5108523;28;20831;-70
2023/02/04 02:35:15;;;;;;;1999.90;999.90;;;7.90;99.90;;;;;;5096522;28;20527;-69
2023/02/04 02:37:42;;;;;;;1999.90;999.90;;;7.90;99.90;;;;;;5099906;28;20929;-70
2023/02/04 02:40:10;;;;;;;1999.90;999.90;;;7.90;99.90;;;;;;5105367;28;20958;-70
2023/02/04 02:42:38;;;;;;;1999.90;999.90;;;7.90;99.90;;;;;;5100927;28;20477;-69
2023/02/04 02:45:11;;;;;;;1999.90;999.90;;;7.90;99.90;;;;;;5104301;28;20446;-70
2023/02/04 02:47:37;;;;;;;1999.90;999.90;;;7.90;99.90;;;;;;5104404;28;20453;-71
2023/02/04 02:50:05;;;;;;;1999.90;999.90;;;7.90;99.90;;;;;;5106006;28;20480;-70
2023/02/04 02:52:32;;;;;;;1999.90;999.90;;;7.80;99.90;;;;;;5105230;28;21000;-72
2023/02/04 02:54:58;;;;;;;1999.90;999.90;;;7.80;99.90;;;;;;5109994;28;20461;-69
2023/02/04 02:57:25;;;;;;;1999.90;999.90;;;7.70;99.90;;;;;;5106092;28;20445;-71
2023/02/04 02:59:53;;;;;;;1999.90;999.90;;;7.80;99.90;;;;;;5110163;28;20453;-70
2023/02/04 03:02:23;;;;;;;1999.90;999.90;;;7.80;99.90;;;;;;5104445;28;20852;-70
2023/02/04 03:04:55;;;;;;;1999.90;999.90;;;7.80;99.90;;;;;;5111597;28;20445;-69
2023/02/04 03:07:23;;;;;;;1999.90;999.90;;;7.80;99.90;;;;;;5105326;28;20465;-70
2023/02/04 03:09:52;;;;;;;1999.90;999.90;;;7.80;99.90;;;;;;5110794;28;20457;-70
2023/02/04 03:12:19;;;;;;;1999.90;999.90;;;7.80;99.90;;;;;;5110611;28;20532;-70
2023/02/04 03:14:46;;;;;;;1999.90;999.90;;;7.80;99.90;;;;;;5110784;28;20861;-70
2023/02/04 03:17:14;;;;;;;1999.90;999.90;;;7.80;99.90;;;;;;5107890;28;20472;-70
2023/02/04 03:19:41;;;;;;;1999.90;999.90;;;7.80;99.90;;;;;;5109841;28;20437;-70
2023/02/04 03:22:08;;;;;;;1999.90;999.90;;;7.80;99.90;;;;;;5109079;28;20491;-69
2023/02/04 03:24:36;;;;;;;1999.90;999.90;;;7.80;99.90;;;;;;5106734;28;20955;-69
2023/02/04 03:27:03;;;;;;;1999.90;999.90;;;7.80;99.90;;;;;;5105687;28;20472;-70
2023/02/04 03:29:30;;;;;;;1999.90;999.90;;;7.80;99.90;;;;;;5106366;28;20455;-69
2023/02/04 03:31:58;;;;;;;1999.90;999.90;;;7.70;99.90;;;;;;5105945;28;20445;-70
2023/02/04 03:34:26;;;;;;;1999.90;999.90;;;7.70;99.90;;;;;;5109958;28;20459;-69
2023/02/04 03:36:53;;;;;;;1999.90;999.90;;;7.70;99.90;;;;;;5107858;28;20465;-70
2023/02/04 03:39:20;;;;;;;1999.90;999.90;;;7.70;99.90;;;;;;5100576;28;20449;-69
2023/02/04 03:41:47;;;;;;;1999.90;999.90;;;7.60;99.90;;;;;;5111065;28;20484;-71
2023/02/04 03:44:14;;;;;;;1999.90;999.90;;;7.70;99.90;;;;;;5107263;28;20449;-71
2023/02/04 03:46:41;;;;;;;1999.90;999.90;;;7.70;99.90;;;;;;5107574;28;20521;-69
2023/02/04 03:49:07;;;;;;;1999.90;999.90;;;7.60;99.90;;;;;;5109456;28;20464;-70
2023/02/04 03:51:35;;;;;;;1999.90;999.90;;;7.60;99.90;;;;;;5108325;28;20484;-69
2023/02/04 03:54:02;;;;;;;1999.90;999.90;;;7.60;99.90;;;;;;5108274;28;20444;-69
2023/02/04 03:56:29;;;;;;;1999.90;999.90;;;7.60;99.90;;;;;;5108357;28;20468;-69
2023/02/04 03:58:56;;;;;;;1999.90;999.90;;;7.60;99.90;;;;;;5107367;28;20450;-70
2023/02/04 04:01:23;;;;;;;1999.90;999.90;;;7.50;99.90;;;;;;5110633;28;20485;-69
2023/02/04 04:03:49;;;;;;;1999.90;999.90;;;7.50;99.90;;;;;;5109474;28;20484;-69
2023/02/04 04:06:16;;;;;;;1999.90;999.90;;;7.50;99.90;;;;;;5108678;28;20838;-68
2023/02/04 04:08:44;;;;;;;1999.90;999.90;;;7.50;99.90;;;;;;5109415;28;21002;-68
2023/02/04 04:11:11;;;;;;;1999.90;999.90;;;7.40;99.90;;;;;;5102753;28;20446;-68
2023/02/04 04:13:38;;;;;;;1999.90;999.90;;;7.40;99.90;;;;;;5111000;28;20452;-67
2023/02/04 04:16:05;;;;;;;1999.90;999.90;;;7.40;99.90;;;;;;5109672;28;21033;-67
2023/02/04 04:18:32;;;;;;;1999.90;999.90;;;7.40;99.90;;;;;;5110071;28;20450;-68
2023/02/04 04:20:59;;;;;;;1999.90;999.90;;;7.30;99.90;;;;;;5109235;28;20458;-68
2023/02/04 04:23:26;;;;;;;1999.90;999.90;;;7.40;99.90;;;;;;5110194;28;20477;-68
2023/02/04 04:25:54;;;;;;;1999.90;999.90;;;7.30;99.90;;;;;;5110284;28;20473;-69
2023/02/04 04:28:21;;;;;;;1999.90;999.90;;;7.30;99.90;;;;;;5105963;28;20441;-69
2023/02/04 04:30:47;;;;;;;1999.90;999.90;;;7.30;99.90;;;;;;5110101;28;20445;-69
2023/02/04 04:33:14;;;;;;;1999.90;999.90;;;7.30;99.90;;;;;;5101628;28;20612;-68
2023/02/04 04:35:41;;;;;;;1999.90;999.90;;;7.30;99.90;;;;;;5106037;28;20465;-67
2023/02/04 04:38:07;;;;;;;1999.90;999.90;;;7.20;99.90;;;;;;5108187;28;20543;-68
2023/02/04 04:40:34;;;;;;;1999.90;999.90;;;7.30;99.90;;;;;;5105094;27;20456;-68
2023/02/04 04:43:02;;;;;;;1999.90;999.90;;;7.20;99.90;;;;;;5110590;27;20493;-69
2023/02/04 04:45:29;;;;;;;1999.90;999.90;;;7.20;99.90;;;;;;5104583;28;20476;-68
2023/02/04 04:47:56;;;;;;;1999.90;999.90;;;7.20;99.90;;;;;;5109082;28;20800;-70
2023/02/04 04:50:22;;;;;;;1999.90;999.90;;;7.20;99.90;;;;;;5108649;28;20453;-68
2023/02/04 04:52:49;;;;;;;1999.90;999.90;;;7.10;99.90;;;;;;5106314;28;20450;-67
2023/02/04 04:55:16;;;;;;;1999.90;999.90;;;7.10;99.90;;;;;;5109707;28;20465;-68
2023/02/04 04:57:43;;;;;;;1999.90;999.90;;;7.10;99.90;;;;;;5108925;28;20453;-69
2023/02/04 05:00:16;;;;;;;1999.90;999.90;;;7.10;99.90;;;;;;5109529;28;20468;-68
2023/02/04 05:02:43;;;;;;;1999.90;999.90;;;7.10;99.90;;;;;;5108682;27;20480;-69
2023/02/04 05:05:10;;;;;;;1999.90;999.90;;;7.00;99.90;;;;;;5109004;28;20452;-68
2023/02/04 05:07:37;;;;;;;1999.90;999.90;;;7.00;99.90;;;;;;5109133;28;20850;-68
2023/02/04 05:10:04;;;;;;;1999.90;999.90;;;7.00;99.90;;;;;;5102545;28;20449;-69
2023/02/04 05:12:32;;;;;;;1999.90;999.90;;;7.00;99.90;;;;;;5105560;28;20445;-70
2023/02/04 05:14:59;;;;;;;1999.90;999.90;;;7.00;99.90;;;;;;5108201;28;20961;-68
2023/02/04 05:17:27;;;;;;;1999.90;999.90;;;7.00;99.90;;;;;;5108375;28;20437;-69
2023/02/04 05:19:53;;;;;;;1999.90;999.90;;;7.00;99.90;;;;;;5109203;28;20448;-68
2023/02/04 05:22:20;;;;;;;1999.90;999.90;;;6.90;99.90;;;;;;5103220;28;20488;-68
2023/02/04 05:24:47;;;;;;;1999.90;999.90;;;7.00;99.90;;;;;;5105016;28;20478;-68
2023/02/04 05:27:14;;;;;;;1999.90;999.90;;;7.00;99.90;;;;;;5108228;28;20461;-68
2023/02/04 05:29:40;;;;;;;1999.90;999.90;;;6.90;99.90;;;;;;5109490;28;20437;-68
2023/02/04 05:32:07;;;;;;;1999.90;999.90;;;6.90;99.90;;;;;;5107999;28;20931;-65
2023/02/04 05:34:35;;;;;;;1999.90;999.90;;;6.90;99.90;;;;;;5105197;28;20450;-69
2023/02/04 05:37:02;;;;;;;1999.90;999.90;;;6.90;99.90;;;;;;5108987;28;20457;-68
2023/02/04 05:39:29;;;;;;;1999.90;999.90;;;6.90;99.90;;;;;;5106041;28;20470;-68
2023/02/04 05:41:55;;;;;;;1999.90;999.90;;;6.80;99.90;;;;;;5109115;28;20477;-69
2023/02/04 05:44:22;;;;;;;1999.90;999.90;;;6.80;99.90;;;;;;5108081;28;20448;-71
2023/02/04 05:46:49;;;;;;;1999.90;999.90;;;6.80;99.90;;;;;;5106322;28;20465;-69
2023/02/04 05:49:16;;;;;;;1999.90;999.90;;;6.80;99.90;;;;;;5107208;28;20449;-68
2023/02/04 05:51:44;;;;;;;1999.90;999.90;;;6.80;99.90;;;;;;5107310;28;20446;-70
2023/02/04 05:54:18;;;;;;;1999.90;999.90;;;6.80;99.90;;;;;;5104997;28;20449;-70
2023/02/04 05:56:44;;;;;;;1999.90;999.90;;;6.80;99.90;;;;;;5108436;28;20565;-70
2023/02/04 05:59:11;;;;;;;1999.90;999.90;;;6.80;99.90;;;;;;5106802;28;20950;-68
2023/02/04 06:01:38;;;;;;;1999.90;999.90;;;6.70;99.90;;;;;;5107548;28;20456;-68
2023/02/04 06:04:05;;;;;;;1999.90;999.90;;;6.80;99.90;;;;;;5107680;28;20453;-69
2023/02/04 06:06:32;;;;;;;1999.90;999.90;;;6.80;99.90;;;;;;5108025;28;20461;-68
2023/02/04 06:09:01;;;;;;;1999.90;999.90;;;6.80;99.90;;;;;;5107979;28;20457;-67
2023/02/04 06:11:27;;;;;;;1999.90;999.90;;;6.70;99.90;;;;;;5108945;28;20448;-68
2023/02/04 06:13:54;;;;;;;1999.90;999.90;;;6.70;99.90;;;;;;5107614;28;20453;-68
2023/02/04 06:16:21;;;;;;;1999.90;999.90;;;6.70;99.90;;;;;;5101663;28;20476;-68
2023/02/04 06:18:48;;;;;;;1999.90;999.90;;;6.70;99.90;;;;;;5108061;28;20449;-69
2023/02/04 06:21:14;;;;;;;1999.90;999.90;;;6.70;99.90;;;;;;5108513;28;20447;-68
2023/02/04 06:23:41;;;;;;;1999.90;999.90;;;6.60;99.90;;;;;;5107520;28;20477;-69
2023/02/04 06:26:09;;;;;;;1999.90;999.90;;;6.60;99.90;;;;;;5108161;28;20477;-68
2023/02/04 06:28:36;;;;;;;1999.90;999.90;;;6.60;99.90;;;;;;5107325;28;20442;-68
2023/02/04 06:31:04;;;;;;;1999.90;999.90;;;6.50;99.90;;;;;;5106380;28;20453;-68
2023/02/04 06:33:30;;;;;;;1999.90;999.90;;;6.50;99.90;;;;;;5098665;28;20465;-69
2023/02/04 06:35:57;;;;;;;1999.90;999.90;;;6.50;99.90;;;;;;5100952;28;20978;-68
2023/02/04 06:38:24;;;;;;;1999.90;999.90;;;6.50;99.90;;;;;;5108822;28;20452;-69
2023/02/04 06:40:52;;;;;;;1999.90;999.90;;;6.50;99.90;;;;;;5103781;28;20502;-69
2023/02/04 06:43:22;;;;;;;1999.90;999.90;;;6.50;99.90;;;;;;5106949;28;20541;-69
2023/02/04 06:45:50;;;;;;;1999.90;999.90;;;6.40;99.90;;;;;;5102343;28;20481;-67
2023/02/04 06:48:17;;;;;;;1999.90;999.90;;;6.50;99.90;;;;;;5108174;28;20510;-69
2023/02/04 06:50:44;;;;;;;1999.90;999.90;;;6.50;99.90;;;;;;5107226;28;20453;-68
2023/02/04 06:53:11;;;;;;;1999.90;999.90;;;6.50;99.90;;;;;;5107997;28;20442;-66
2023/02/04 06:55:37;;;;;;;1999.90;999.90;;;6.50;99.90;;;;;;5106487;28;20464;-69
2023/02/04 06:58:04;;;;;;;1999.90;999.90;;;6.50;99.90;;;;;;5108352;28;20445;-70
2023/02/04 07:00:32;;;;;;;1999.90;999.90;;;6.50;99.90;;;;;;5109095;28;20452;-68
2023/02/04 07:02:59;;;;;;;1999.90;999.90;;;6.50;99.90;;;;;;5108189;28;21001;-68
2023/02/04 07:05:26;;;;;;;1999.90;999.90;;;6.50;99.90;;;;;;5109795;28;20481;-68
2023/02/04 07:07:52;;;;;;;1999.90;999.90;;;6.50;99.90;;;;;;5106049;28;20445;-69
2023/02/04 07:10:20;;;;;;;1999.90;999.90;;;6.50;99.90;;;;;;5106560;28;20453;-69
2023/02/04 07:12:47;;;;;;;1999.90;999.90;;;6.50;99.90;;;;;;5108095;28;20437;-69
2023/02/04 07:15:14;;;;;;;1999.90;999.90;;;6.60;99.90;;;;;;5107067;28;20445;-68
2023/02/04 07:17:42;;;;;;;1999.90;999.90;;;6.60;99.90;;;;;;5107753;28;20951;-68
2023/02/04 07:20:10;;;;;;;1999.90;999.90;;;6.60;99.90;;;;;;5101573;28;20449;-69
2023/02/04 07:22:37;;;;;;;1999.90;999.90;;;6.60;99.90;;;;;;5097847;28;20481;-69
2023/02/04 07:25:04;;;;;;;1999.90;999.90;;;6.60;99.90;;;;;;5102566;28;20897;-69
2023/02/04 07:27:31;;;;;;;1999.90;999.90;;;6.70;99.90;;;;;;5103463;28;20506;-70
2023/02/04 07:29:58;;;;;;;1999.90;999.90;;;6.70;99.90;;;;;;5106834;28;20454;-68
2023/02/04 07:32:26;;;;;;;1999.90;999.90;;;6.70;99.90;;;;;;5103099;28;20460;-67
2023/02/04 07:34:54;;;;;;;1999.90;999.90;;;6.80;99.90;;;;;;5103036;28;20458;-68
2023/02/04 07:37:22;;;;;;;1999.90;999.90;;;6.80;99.90;;;;;;5099087;28;20472;-68
2023/02/04 07:39:49;;;;;;;1999.90;999.90;;;6.80;99.90;;;;;;5104021;28;20453;-67
2023/02/04 07:42:16;;;;;;;1999.90;999.90;;;6.80;99.90;;;;;;5109194;28;20461;-69
2023/02/04 07:44:42;;;;;;;1999.90;999.90;;;6.80;99.90;;;;;;5107305;28;21178;-68
2023/02/04 07:47:10;;;;;;;1999.90;999.90;;;6.90;99.90;;;;;;5110780;28;20465;-68
2023/02/04 07:49:37;;;;;;;1999.90;999.90;;;6.90;99.90;;;;;;5111827;28;20441;-69
2023/02/04 07:52:05;;;;;;;1999.90;999.90;;;6.80;99.90;;;;;;5109595;28;20453;-68
2023/02/04 07:54:32;;;;;;;1999.90;999.90;;;6.80;99.90;;;;;;5108416;27;20437;-70
2023/02/04 07:56:59;;;;;;;1999.90;999.90;;;6.80;99.90;;;;;;5103583;28;20470;-67
2023/02/04 07:59:25;;;;;;;1999.90;999.90;;;6.70;99.90;;;;;;5109683;28;20445;-68
2023/02/04 08:01:52;;;;;;;1999.90;999.90;;;6.60;99.90;;;;;;5109569;28;20460;-68
2023/02/04 08:04:19;;;;;;;1999.90;999.90;;;6.60;99.90;;;;;;5111327;28;20492;-68
2023/02/04 08:06:46;;;;;;;1999.90;999.90;;;6.70;99.90;;;;;;5104250;28;20461;-69
2023/02/04 08:09:14;;;;;;;1999.90;999.90;;;6.70;99.90;;;;;;5109934;28;21097;-68
2023/02/04 08:11:40;;;;;;;1999.90;999.90;;;6.70;99.90;;;;;;5105401;28;20450;-68
2023/02/04 08:14:07;;;;;;;1999.90;999.90;;;6.70;99.90;;;;;;5108266;28;20448;-68
2023/02/04 08:16:34;;;;;;;1999.90;999.90;;;6.80;99.90;;;;;;5109518;28;20476;-68
2023/02/04 08:19:01;;;;;;;1999.90;999.90;;;6.90;99.90;;;;;;5108315;28;21141;-67
2023/02/04 08:21:27;;;;;;;1999.90;999.90;;;6.90;99.90;;;;;;5108567;28;20446;-67
2023/02/04 08:23:54;;;;;;;1999.90;999.90;;;7.00;99.90;;;;;;5110127;28;20485;-67
2023/02/04 08:26:22;;;;;;;1999.90;999.90;;;7.00;99.90;;;;;;5104186;28;20473;-68
2023/02/04 08:28:49;;;;;;;1999.90;999.90;;;7.00;99.90;;;;;;5110530;27;20456;-67
2023/02/04 08:31:16;;;;;;;1999.90;999.90;;;7.00;99.90;;;;;;5106407;28;20452;-68
2023/02/04 08:33:42;;;;;;;1999.90;999.90;;;7.00;99.90;;;;;;5101089;28;20447;-68
2023/02/04 08:36:09;;;;;;;1999.90;999.90;;;7.00;99.90;;;;;;5100932;27;20519;-67
2023/02/04 08:38:36;;;;;;;1999.90;999.90;;;6.90;99.90;;;;;;5102716;28;20443;-68
2023/02/04 08:41:03;;;;;;;1999.90;999.90;;;6.80;99.90;;;;;;5109520;27;21120;-67
2023/02/04 08:43:31;;;;;;;1999.90;999.90;;;6.70;99.90;;;;;;5102547;28;21311;-66
2023/02/04 08:45:58;;;;;;;1999.90;999.90;;;6.70;99.90;;;;;;5106662;28;21227;-66
2023/02/04 08:48:24;;;;;;;1999.90;999.90;;;6.60;99.90;;;;;;5109382;28;20905;-67
2023/02/04 08:50:51;;;;;;;1999.90;999.90;;;6.50;99.90;;;;;;5108305;28;20472;-67
2023/02/04 08:53:18;;;;;;;1999.90;999.90;;;6.60;99.90;;;;;;5100317;28;21210;-72
2023/02/04 08:55:45;;;;;;;1999.90;999.90;;;6.50;99.90;;;;;;5101928;28;20468;-68
2023/02/04 08:58:11;;;;;;;1999.90;999.90;;;6.60;99.90;;;;;;5108424;28;20449;-68
2023/02/04 09:00:40;;;;;;;1999.90;999.90;;;6.50;99.90;;;;;;5108224;28;20809;-67
2023/02/04 09:03:06;;;;;;;1999.90;999.90;;;6.50;99.90;;;;;;5107694;28;20487;-67
2023/02/04 09:05:33;;;;;;;1999.90;999.90;;;6.60;99.90;;;;;;5109172;28;20464;-65
2023/02/04 09:08:00;;;;;;;1999.90;999.90;;;6.60;99.90;;;;;;5110723;28;20456;-65
2023/02/04 09:10:27;;;;;;;1999.90;999.90;;;6.70;99.90;;;;;;5107139;28;20452;-65
2023/02/04 09:12:54;;;;;;;1999.90;999.90;;;6.70;99.90;;;;;;5109969;28;20445;-68
2023/02/04 09:15:22;;;;;;;1999.90;999.90;;;6.80;99.90;;;;;;5110557;28;20469;-66
2023/02/04 09:17:52;;;;;;;1999.90;999.90;;;6.80;99.90;;;;;;5110813;28;20449;-66
2023/02/04 09:20:19;;;;;;;1999.90;999.90;;;6.80;99.90;;;;;;5110324;28;20500;-66
2023/02/04 09:22:46;;;;;;;1999.90;999.90;;;6.90;99.90;;;;;;5110659;28;20986;-67
2023/02/04 09:25:13;;;;;;;1999.90;999.90;;;7.00;99.90;;;;;;5111552;28;20459;-66
2023/02/04 09:27:40;;;;;;;1999.90;999.90;;;7.30;99.90;;;;;;5110256;28;20441;-67
2023/02/04 09:30:09;;;;;;;1999.90;999.90;;;7.50;99.90;;;;;;5109693;28;20453;-65
2023/02/04 09:32:36;;;;;;;1999.90;999.90;;;7.70;99.90;;;;;;5110804;28;20827;-66
2023/02/04 09:35:04;;;;;;;1999.90;999.90;;;7.80;99.90;;;;;;5110488;28;20819;-67
2023/02/04 09:37:31;;;;;;;1999.90;999.90;;;7.90;99.90;;;;;;5112164;28;20441;-67
2023/02/04 09:39:58;;;;;;;1999.90;999.90;;;8.10;99.90;;;;;;5109864;28;20437;-65
2023/02/04 09:42:26;;;;;;;1999.90;999.90;;;8.40;99.90;;;;;;5110520;28;20450;-68
2023/02/04 09:44:52;;;;;;;1999.90;999.90;;;8.80;99.90;;;;;;5106640;28;21009;-66
2023/02/04 09:47:22;;;;;;;1999.90;999.90;;;9.20;99.90;;;;;;5103835;28;20465;-67
2023/02/04 09:49:49;;;;;;;1999.90;999.90;;;9.80;99.90;;;;;;5107453;28;20437;-68
2023/02/04 09:52:19;;;;;;;1999.90;999.90;;;9.90;99.90;;;;;;5106601;28;20472;-66
2023/02/04 09:54:45;;;;;;;1999.90;999.90;;;9.70;99.90;;;;;;5109319;28;20457;-66
2023/02/04 09:57:17;;;;;;;1999.90;999.90;;;9.70;99.90;;;;;;5106433;28;20461;-66
2023/02/04 09:59:44;;;;;;;1999.90;999.90;;;9.40;99.90;;;;;;5107000;28;20441;-66
2023/02/04 10:02:22;;;;;;;1999.90;999.90;;;9.30;99.90;;;;;;5108732;28;20446;-65
2023/02/04 10:04:49;;;;;;;1999.90;999.90;;;9.40;99.90;;;;;;5106086;28;20985;-64
2023/02/04 10:07:23;;;;;;;1999.90;999.90;;;9.50;99.90;;;;;;5108711;28;20476;-64
2023/02/04 10:09:51;;;;;;;1999.90;999.90;;;9.60;99.90;;;;;;5105044;28;20542;-64
2023/02/04 10:12:18;;;;;;;1999.90;999.90;;;9.40;99.90;;;;;;5104204;28;20735;-67
2023/02/04 10:14:45;;;;;;;1999.90;999.90;;;9.40;99.90;;;;;;5104550;28;20830;-65
2023/02/04 10:17:15;;;;;;;1999.90;999.90;;;9.20;99.90;;;;;;5107620;28;20856;-66
2023/02/04 10:19:42;;;;;;;1999.90;999.90;;;9.00;99.90;;;;;;5107690;28;20480;-68
2023/02/04 10:22:18;;;;;;;1999.90;999.90;;;9.00;99.90;;;;;;5108477;28;20988;-66
2023/02/04 10:24:45;;;;;;;1999.90;999.90;;;8.90;99.90;;;;;;5095239;27;20993;-67
2023/02/04 10:27:15;;;;;;;1999.90;999.90;;;8.80;99.90;;;;;;5101615;28;20471;-66
2023/02/04 10:29:43;;;;;;;1999.90;999.90;;;8.60;99.90;;;;;;5105400;28;20446;-66
2023/02/04 10:32:28;;;;;;;1999.90;999.90;;;8.50;99.90;;;;;;5106691;28;20897;-66
2023/02/04 10:35:00;;;;;;;1999.90;999.90;;;8.50;99.90;;;;;;5105958;28;20535;-69
2023/02/04 10:37:29;;;;;;;1999.90;999.90;;;8.60;99.90;;;;;;5106837;28;20441;-66
2023/02/04 10:39:56;;;;;;;1999.90;999.90;;;8.60;99.90;;;;;;5105969;28;20452;-67
2023/02/04 10:42:25;;;;;;;1999.90;999.90;;;8.70;99.90;;;;;;5105775;28;20453;-68
2023/02/04 10:44:52;;;;;;;1999.90;999.90;;;8.70;99.90;;;;;;5099888;28;20482;-68
2023/02/04 10:47:20;;;;;;;1999.90;999.90;;;8.80;99.90;;;;;;5102450;28;20484;-67
2023/02/04 10:49:55;;;;;;;1999.90;999.90;;;8.60;99.90;;;;;;5105356;28;20450;-68
2023/02/04 10:52:30;;;;;;;1999.90;999.90;;;8.70;99.90;;;;;;5099888;28;20930;-70
2023/02/04 10:54:57;;;;;;;1999.90;999.90;;;8.80;99.90;;;;;;5096246;28;20865;-70
2023/02/04 10:57:28;;;;;;;1999.90;999.90;;;9.00;99.90;;;;;;5104833;28;20476;-70
2023/02/04 10:59:58;;;;;;;1999.90;999.90;;;9.20;99.90;;;;;;5105534;28;20445;-71
2023/02/04 11:02:38;;;;;;;1999.90;999.90;;;9.40;99.90;;;;;;5099827;28;20468;-71
2023/02/04 11:05:10;;;;;;;1999.90;999.90;;;9.60;99.90;;;;;;5106421;27;20481;-71
2023/02/04 11:07:37;;;;;;;1999.90;999.90;;;10.00;99.90;;;;;;5102273;28;20468;-68
2023/02/04 11:10:06;;;;;;;1999.90;999.90;;;10.20;99.90;;;;;;5102420;28;20445;-67
2023/02/04 11:12:40;;;;;;;1999.90;999.90;;;9.90;99.90;;;;;;5106724;28;20861;-67
2023/02/04 11:15:28;;;;;;;1999.90;999.90;;;10.10;99.90;;;;;;5103409;28;20443;-67
2023/02/04 11:18:03;;;;;;;1999.90;999.90;;;10.30;99.90;;;;;;5108886;28;20442;-69
2023/02/04 11:20:33;;;;;;;1999.90;999.90;;;9.80;99.90;;;;;;5106038;27;20454;-68
2023/02/04 11:23:15;;;;;;;1999.90;999.90;;;9.40;99.90;;;;;;5110497;28;20782;-68
2023/02/04 11:25:42;;;;;;;1999.90;999.90;;;9.30;99.90;;;;;;5110151;27;20903;-68
2023/02/04 11:28:26;;;;;;;1999.90;999.90;;;9.30;99.90;;;;;;5108548;28;20481;-68
2023/02/04 11:30:59;;;;;;;1999.90;999.90;;;9.50;99.90;;;;;;5107329;28;20457;-70
2023/02/04 11:33:41;;;;;;;1999.90;999.90;;;9.60;99.90;;;;;;5107759;28;20852;-70
2023/02/04 11:36:12;;;;;;;1999.90;999.90;;;9.60;99.90;;;;;;5107880;28;20468;-69
2023/02/04 11:38:39;;;;;;;1999.90;999.90;;;9.60;99.90;;;;;;5110606;28;20445;-69
2023/02/04 11:41:06;;;;;;;1999.90;999.90;;;9.50;99.90;;;;;;5108511;28;20441;-70
2023/02/04 11:43:34;;;;;;;1999.90;999.90;;;9.40;99.90;;;;;;5108810;27;20453;-68
2023/02/04 11:46:04;;;;;;;1999.90;999.90;;;9.40;99.90;;;;;;5103514;28;20512;-68
2023/02/04 11:48:35;;;;;;;1999.90;999.90;;;9.40;99.90;;;;;;5101712;28;20449;-69
2023/02/04 11:51:04;;;;;;;1999.90;999.90;;;9.50;99.90;;;;;;5109835;28;20441;-70
2023/02/04 11:53:33;;;;;;;1999.90;999.90;;;9.50;99.90;;;;;;5110611;28;20898;-70
2023/02/04 11:56:00;;;;;;;1999.90;999.90;;;9.60;99.90;;;;;;5107530;28;20473;-68
2023/02/04 11:58:29;;;;;;;1999.90;999.90;;;9.80;99.90;;;;;;5104266;28;20441;-67
2023/02/04 12:00:56;;;;;;;1999.90;999.90;;;10.00;99.90;;;;;;5110084;28;20502;-66
2023/02/04 12:03:26;;;;;;;1999.90;999.90;;;9.90;99.90;;;;;;5109847;28;20965;-66
2023/02/04 12:05:57;;;;;;;1999.90;999.90;;;10.10;99.90;;;;;;5106680;28;21162;-65
2023/02/04 12:08:33;;;;;;;1999.90;999.90;;;10.20;99.90;;;;;;5104264;28;20453;-67
2023/02/04 12:11:06;;;;;;;1999.90;999.90;;;10.20;99.90;;;;;;5110305;28;20453;-68
2023/02/04 12:13:34;;;;;;;1999.90;999.90;;;9.90;99.90;;;;;;5106546;27;20450;-69